Murry, Missouri
Current Conditions -  °F | °C
As of 4:07 AM on Monday 26 Jan 2015 (Local Time) from KCOU Reporting Station
Broken Clouds Broken Clouds  
Wind Chill: -5°   Ceiling: 2300
Heat Index: -2°   Visibility: 10mi
Dew Point: -4°   Wind: 5mph
Humidity: 88%   Direction: 260°W
Pressure: 30.05"   Gusts: NA
Location:  39.0235°N, 92.2896°W
Report Text: KCOU 261007Z AUTO 26004KT 10SM BKN023 M02/M04 A3005 RMK AO2 T10221039
Loading
Personal Weather Stations






























Interactive Weather Map New forecast layout! Learn more

10-Day Weather Forecast

Advertisements
Track Severe Weather on mobile